sensor_id;sensor_type;location;lat;lon;timestamp;P1;durP1;ratioP1;P2;durP2;ratioP2
75429;SDS011;64127;51.488;5.462;2023-02-14T00:02:17;22.10;;;17.50;;
75429;SDS011;64127;51.488;5.462;2023-02-14T00:04:57;20.07;;;16.63;;
75429;SDS011;64127;51.488;5.462;2023-02-14T00:07:30;20.33;;;16.60;;
75429;SDS011;64127;51.488;5.462;2023-02-14T00:10:02;20.90;;;17.70;;
75429;SDS011;64127;51.488;5.462;2023-02-14T00:12:35;19.97;;;17.33;;
75429;SDS011;64127;51.488;5.462;2023-02-14T00:15:10;20.80;;;17.63;;
75429;SDS011;64127;51.488;5.462;2023-02-14T00:17:55;20.90;;;17.03;;
75429;SDS011;64127;51.488;5.462;2023-02-14T00:20:32;19.80;;;16.40;;
75429;SDS011;64127;51.488;5.462;2023-02-14T00:23:05;21.97;;;17.13;;
75429;SDS011;64127;51.488;5.462;2023-02-14T00:25:37;20.07;;;17.40;;
75429;SDS011;64127;51.488;5.462;2023-02-14T00:28:09;23.40;;;18.07;;
75429;SDS011;64127;51.488;5.462;2023-02-14T00:30:42;20.20;;;16.53;;
75429;SDS011;64127;51.488;5.462;2023-02-14T00:33:14;20.50;;;17.23;;
75429;SDS011;64127;51.488;5.462;2023-02-14T00:35:49;20.83;;;17.37;;
75429;SDS011;64127;51.488;5.462;2023-02-14T00:38:22;22.67;;;16.57;;
75429;SDS011;64127;51.488;5.462;2023-02-14T00:40:56;21.23;;;16.93;;
75429;SDS011;64127;51.488;5.462;2023-02-14T00:43:29;21.60;;;16.67;;
75429;SDS011;64127;51.488;5.462;2023-02-14T00:46:05;20.67;;;17.00;;
75429;SDS011;64127;51.488;5.462;2023-02-14T00:48:40;21.50;;;17.03;;
75429;SDS011;64127;51.488;5.462;2023-02-14T00:51:13;21.30;;;17.50;;
75429;SDS011;64127;51.488;5.462;2023-02-14T00:53:46;19.80;;;16.50;;
75429;SDS011;64127;51.488;5.462;2023-02-14T00:56:20;21.67;;;17.57;;
75429;SDS011;64127;51.488;5.462;2023-02-14T00:58:53;22.13;;;17.17;;
75429;SDS011;64127;51.488;5.462;2023-02-14T01:01:25;20.77;;;16.97;;
75429;SDS011;64127;51.488;5.462;2023-02-14T01:03:58;21.03;;;16.80;;
75429;SDS011;64127;51.488;5.462;2023-02-14T01:06:31;20.17;;;16.77;;
75429;SDS011;64127;51.488;5.462;2023-02-14T01:09:09;19.00;;;16.53;;
75429;SDS011;64127;51.488;5.462;2023-02-14T01:11:42;19.90;;;16.97;;
75429;SDS011;64127;51.488;5.462;2023-02-14T01:14:14;19.60;;;16.57;;
75429;SDS011;64127;51.488;5.462;2023-02-14T01:16:46;20.13;;;16.47;;
75429;SDS011;64127;51.488;5.462;2023-02-14T01:19:19;20.93;;;17.07;;
75429;SDS011;64127;51.488;5.462;2023-02-14T01:21:51;20.00;;;17.87;;
75429;SDS011;64127;51.488;5.462;2023-02-14T01:24:24;22.77;;;18.17;;
75429;SDS011;64127;51.488;5.462;2023-02-14T01:26:57;20.17;;;17.87;;
75429;SDS011;64127;51.488;5.462;2023-02-14T01:29:29;20.90;;;17.53;;
75429;SDS011;64127;51.488;5.462;2023-02-14T01:32:01;19.57;;;17.33;;
75429;SDS011;64127;51.488;5.462;2023-02-14T01:34:37;20.37;;;17.43;;
75429;SDS011;64127;51.488;5.462;2023-02-14T01:37:09;22.30;;;18.20;;
75429;SDS011;64127;51.488;5.462;2023-02-14T01:39:41;21.17;;;17.20;;
75429;SDS011;64127;51.488;5.462;2023-02-14T01:42:14;20.27;;;18.10;;
75429;SDS011;64127;51.488;5.462;2023-02-14T01:47:36;22.20;;;18.33;;
75429;SDS011;64127;51.488;5.462;2023-02-14T01:50:19;21.57;;;17.53;;
75429;SDS011;64127;51.488;5.462;2023-02-14T01:55:39;19.37;;;16.80;;
75429;SDS011;64127;51.488;5.462;2023-02-14T01:58:19;20.47;;;17.20;;
75429;SDS011;64127;51.488;5.462;2023-02-14T02:00:56;19.73;;;16.77;;
75429;SDS011;64127;51.488;5.462;2023-02-14T02:04:12;20.23;;;17.43;;
75429;SDS011;64127;51.488;5.462;2023-02-14T02:06:28;19.47;;;16.67;;
75429;SDS011;64127;51.488;5.462;2023-02-14T02:11:55;18.77;;;16.60;;
75429;SDS011;64127;51.488;5.462;2023-02-14T02:14:27;18.90;;;16.13;;
75429;SDS011;64127;51.488;5.462;2023-02-14T02:20:12;18.93;;;16.87;;
75429;SDS011;64127;51.488;5.462;2023-02-14T02:30:04;18.70;;;15.80;;
75429;SDS011;64127;51.488;5.462;2023-02-14T02:39:04;18.00;;;15.27;;
75429;SDS011;64127;51.488;5.462;2023-02-14T02:48:04;19.93;;;16.30;;
75429;SDS011;64127;51.488;5.462;2023-02-14T02:50:52;22.27;;;16.70;;
75429;SDS011;64127;51.488;5.462;2023-02-14T02:53:51;18.27;;;15.80;;
75429;SDS011;64127;51.488;5.462;2023-02-14T02:56:45;19.97;;;15.70;;
75429;SDS011;64127;51.488;5.462;2023-02-14T02:59:30;18.50;;;15.90;;
75429;SDS011;64127;51.488;5.462;2023-02-14T03:02:15;20.23;;;17.13;;
75429;SDS011;64127;51.488;5.462;2023-02-14T03:04:56;18.73;;;15.87;;
75429;SDS011;64127;51.488;5.462;2023-02-14T03:07:34;18.10;;;15.47;;
75429;SDS011;64127;51.488;5.462;2023-02-14T03:10:11;19.43;;;16.90;;
75429;SDS011;64127;51.488;5.462;2023-02-14T03:12:56;19.27;;;15.80;;
75429;SDS011;64127;51.488;5.462;2023-02-14T03:15:55;18.60;;;15.87;;
75429;SDS011;64127;51.488;5.462;2023-02-14T03:21:59;17.43;;;15.23;;
75429;SDS011;64127;51.488;5.462;2023-02-14T03:25:16;17.47;;;14.97;;
75429;SDS011;64127;51.488;5.462;2023-02-14T03:28:13;20.37;;;15.87;;
75429;SDS011;64127;51.488;5.462;2023-02-14T03:34:19;17.73;;;15.70;;
75429;SDS011;64127;51.488;5.462;2023-02-14T03:37:09;18.60;;;15.57;;
75429;SDS011;64127;51.488;5.462;2023-02-14T03:42:34;18.90;;;15.70;;
75429;SDS011;64127;51.488;5.462;2023-02-14T03:45:15;17.60;;;15.63;;
75429;SDS011;64127;51.488;5.462;2023-02-14T03:48:05;18.40;;;16.40;;
75429;SDS011;64127;51.488;5.462;2023-02-14T03:50:43;19.30;;;15.33;;
75429;SDS011;64127;51.488;5.462;2023-02-14T03:53:21;19.67;;;15.87;;
75429;SDS011;64127;51.488;5.462;2023-02-14T03:56:02;19.70;;;16.13;;
75429;SDS011;64127;51.488;5.462;2023-02-14T03:58:52;19.00;;;14.87;;
75429;SDS011;64127;51.488;5.462;2023-02-14T04:01:35;17.13;;;14.83;;
75429;SDS011;64127;51.488;5.462;2023-02-14T04:04:16;17.70;;;14.90;;
75429;SDS011;64127;51.488;5.462;2023-02-14T04:06:54;19.03;;;15.50;;
75429;SDS011;64127;51.488;5.462;2023-02-14T04:09:36;18.47;;;14.77;;
75429;SDS011;64127;51.488;5.462;2023-02-14T04:12:09;17.03;;;15.13;;
75429;SDS011;64127;51.488;5.462;2023-02-14T04:14:42;17.50;;;15.13;;
75429;SDS011;64127;51.488;5.462;2023-02-14T04:17:15;18.57;;;14.93;;
75429;SDS011;64127;51.488;5.462;2023-02-14T04:20:11;19.17;;;15.40;;
75429;SDS011;64127;51.488;5.462;2023-02-14T04:22:56;17.63;;;15.30;;
75429;SDS011;64127;51.488;5.462;2023-02-14T04:25:33;16.63;;;14.50;;
75429;SDS011;64127;51.488;5.462;2023-02-14T04:28:12;17.17;;;14.90;;
75429;SDS011;64127;51.488;5.462;2023-02-14T04:30:54;17.63;;;14.23;;
75429;SDS011;64127;51.488;5.462;2023-02-14T04:33:34;17.70;;;15.30;;
75429;SDS011;64127;51.488;5.462;2023-02-14T04:36:13;19.33;;;16.03;;
75429;SDS011;64127;51.488;5.462;2023-02-14T04:38:50;17.73;;;14.87;;
75429;SDS011;64127;51.488;5.462;2023-02-14T04:41:26;17.57;;;14.77;;
75429;SDS011;64127;51.488;5.462;2023-02-14T04:44:01;18.27;;;14.90;;
75429;SDS011;64127;51.488;5.462;2023-02-14T04:46:43;17.40;;;14.67;;
75429;SDS011;64127;51.488;5.462;2023-02-14T04:49:23;19.27;;;14.93;;
75429;SDS011;64127;51.488;5.462;2023-02-14T04:52:01;18.03;;;15.40;;
75429;SDS011;64127;51.488;5.462;2023-02-14T04:54:34;20.50;;;15.70;;
75429;SDS011;64127;51.488;5.462;2023-02-14T04:57:09;18.00;;;14.57;;
75429;SDS011;64127;51.488;5.462;2023-02-14T04:59:45;18.63;;;15.63;;
75429;SDS011;64127;51.488;5.462;2023-02-14T05:02:18;17.70;;;14.83;;
75429;SDS011;64127;51.488;5.462;2023-02-14T05:04:50;17.03;;;14.73;;
75429;SDS011;64127;51.488;5.462;2023-02-14T05:07:25;18.17;;;15.73;;
75429;SDS011;64127;51.488;5.462;2023-02-14T05:10:04;17.23;;;15.13;;
75429;SDS011;64127;51.488;5.462;2023-02-14T05:12:41;18.53;;;15.10;;
75429;SDS011;64127;51.488;5.462;2023-02-14T05:15:17;17.03;;;14.67;;
75429;SDS011;64127;51.488;5.462;2023-02-14T05:17:49;18.30;;;14.63;;
75429;SDS011;64127;51.488;5.462;2023-02-14T05:20:28;16.97;;;14.27;;
75429;SDS011;64127;51.488;5.462;2023-02-14T05:23:06;17.60;;;15.57;;
75429;SDS011;64127;51.488;5.462;2023-02-14T05:25:46;16.63;;;14.63;;
75429;SDS011;64127;51.488;5.462;2023-02-14T05:28:23;17.93;;;14.63;;
75429;SDS011;64127;51.488;5.462;2023-02-14T05:31:21;16.83;;;14.23;;
75429;SDS011;64127;51.488;5.462;2023-02-14T05:34:00;17.03;;;14.23;;
75429;SDS011;64127;51.488;5.462;2023-02-14T05:36:49;16.43;;;14.23;;
75429;SDS011;64127;51.488;5.462;2023-02-14T05:39:26;16.43;;;13.83;;
75429;SDS011;64127;51.488;5.462;2023-02-14T05:42:11;16.50;;;13.63;;
75429;SDS011;64127;51.488;5.462;2023-02-14T05:44:48;16.80;;;14.23;;
75429;SDS011;64127;51.488;5.462;2023-02-14T05:47:28;17.03;;;14.07;;
75429;SDS011;64127;51.488;5.462;2023-02-14T05:50:13;16.97;;;14.03;;
75429;SDS011;64127;51.488;5.462;2023-02-14T05:52:57;17.90;;;14.67;;
75429;SDS011;64127;51.488;5.462;2023-02-14T05:56:01;16.70;;;13.27;;
75429;SDS011;64127;51.488;5.462;2023-02-14T05:59:00;16.27;;;14.40;;
75429;SDS011;64127;51.488;5.462;2023-02-14T06:02:14;15.20;;;13.57;;
75429;SDS011;64127;51.488;5.462;2023-02-14T06:04:54;17.70;;;13.70;;
75429;SDS011;64127;51.488;5.462;2023-02-14T06:07:30;17.20;;;14.07;;
75429;SDS011;64127;51.488;5.462;2023-02-14T06:10:03;15.73;;;12.83;;
75429;SDS011;64127;51.488;5.462;2023-02-14T06:12:56;17.77;;;14.43;;
75429;SDS011;64127;51.488;5.462;2023-02-14T06:15:46;16.80;;;13.57;;
75429;SDS011;64127;51.488;5.462;2023-02-14T06:18:29;15.20;;;13.30;;
75429;SDS011;64127;51.488;5.462;2023-02-14T06:21:20;14.93;;;12.83;;
75429;SDS011;64127;51.488;5.462;2023-02-14T06:23:57;17.27;;;13.73;;
75429;SDS011;64127;51.488;5.462;2023-02-14T06:27:10;16.03;;;13.47;;
75429;SDS011;64127;51.488;5.462;2023-02-14T06:29:58;14.00;;;12.53;;
75429;SDS011;64127;51.488;5.462;2023-02-14T06:32:33;16.30;;;14.00;;
75429;SDS011;64127;51.488;5.462;2023-02-14T06:35:10;16.00;;;13.50;;
75429;SDS011;64127;51.488;5.462;2023-02-14T06:37:53;15.03;;;13.13;;
75429;SDS011;64127;51.488;5.462;2023-02-14T06:40:37;59.50;;;19.88;;
75429;SDS011;64127;51.488;5.462;2023-02-14T06:43:29;24.83;;;14.23;;
75429;SDS011;64127;51.488;5.462;2023-02-14T06:46:12;19.93;;;13.97;;
75429;SDS011;64127;51.488;5.462;2023-02-14T06:49:16;18.77;;;13.67;;
75429;SDS011;64127;51.488;5.462;2023-02-14T06:52:00;21.07;;;13.47;;
75429;SDS011;64127;51.488;5.462;2023-02-14T06:54:54;16.70;;;13.47;;
75429;SDS011;64127;51.488;5.462;2023-02-14T06:57:57;17.47;;;13.83;;
75429;SDS011;64127;51.488;5.462;2023-02-14T07:00:46;16.50;;;13.23;;
75429;SDS011;64127;51.488;5.462;2023-02-14T07:03:36;16.97;;;13.53;;
75429;SDS011;64127;51.488;5.462;2023-02-14T07:06:16;17.00;;;13.63;;
75429;SDS011;64127;51.488;5.462;2023-02-14T07:09:00;16.40;;;13.87;;
75429;SDS011;64127;51.488;5.462;2023-02-14T07:11:32;16.47;;;13.80;;
75429;SDS011;64127;51.488;5.462;2023-02-14T07:14:06;17.73;;;13.07;;
75429;SDS011;64127;51.488;5.462;2023-02-14T07:16:45;17.20;;;13.53;;
75429;SDS011;64127;51.488;5.462;2023-02-14T07:19:30;16.50;;;13.33;;
75429;SDS011;64127;51.488;5.462;2023-02-14T07:22:03;15.20;;;13.53;;
75429;SDS011;64127;51.488;5.462;2023-02-14T07:24:49;16.53;;;13.00;;
75429;SDS011;64127;51.488;5.462;2023-02-14T07:27:33;16.03;;;13.50;;
75429;SDS011;64127;51.488;5.462;2023-02-14T07:30:10;15.50;;;13.33;;
75429;SDS011;64127;51.488;5.462;2023-02-14T07:33:03;15.10;;;12.97;;
75429;SDS011;64127;51.488;5.462;2023-02-14T07:35:40;15.67;;;13.90;;
75429;SDS011;64127;51.488;5.462;2023-02-14T07:38:15;16.83;;;14.93;;
75429;SDS011;64127;51.488;5.462;2023-02-14T07:40:52;18.43;;;15.53;;
75429;SDS011;64127;51.488;5.462;2023-02-14T07:43:24;18.60;;;15.17;;
75429;SDS011;64127;51.488;5.462;2023-02-14T07:46:11;16.40;;;14.10;;
75429;SDS011;64127;51.488;5.462;2023-02-14T07:48:44;18.07;;;14.23;;
75429;SDS011;64127;51.488;5.462;2023-02-14T07:51:37;16.70;;;14.37;;
75429;SDS011;64127;51.488;5.462;2023-02-14T07:54:09;17.60;;;13.97;;
75429;SDS011;64127;51.488;5.462;2023-02-14T07:56:41;17.87;;;14.27;;
75429;SDS011;64127;51.488;5.462;2023-02-14T07:59:14;21.57;;;14.90;;
75429;SDS011;64127;51.488;5.462;2023-02-14T08:01:54;19.33;;;14.63;;
75429;SDS011;64127;51.488;5.462;2023-02-14T08:04:31;17.43;;;13.63;;
75429;SDS011;64127;51.488;5.462;2023-02-14T08:07:10;16.23;;;13.80;;
75429;SDS011;64127;51.488;5.462;2023-02-14T08:09:45;18.87;;;14.10;;
75429;SDS011;64127;51.488;5.462;2023-02-14T08:12:18;19.53;;;13.90;;
75429;SDS011;64127;51.488;5.462;2023-02-14T08:15:09;19.23;;;14.90;;
75429;SDS011;64127;51.488;5.462;2023-02-14T08:18:00;17.20;;;13.87;;
75429;SDS011;64127;51.488;5.462;2023-02-14T08:20:32;18.33;;;14.03;;
75429;SDS011;64127;51.488;5.462;2023-02-14T08:23:07;17.13;;;14.93;;
75429;SDS011;64127;51.488;5.462;2023-02-14T08:25:40;20.53;;;15.10;;
75429;SDS011;64127;51.488;5.462;2023-02-14T08:28:12;15.87;;;13.73;;
75429;SDS011;64127;51.488;5.462;2023-02-14T08:30:45;16.67;;;14.93;;
75429;SDS011;64127;51.488;5.462;2023-02-14T08:33:17;15.97;;;14.27;;
75429;SDS011;64127;51.488;5.462;2023-02-14T08:35:50;16.03;;;14.33;;
75429;SDS011;64127;51.488;5.462;2023-02-14T08:38:26;15.43;;;13.83;;
75429;SDS011;64127;51.488;5.462;2023-02-14T08:41:04;18.30;;;14.43;;
75429;SDS011;64127;51.488;5.462;2023-02-14T08:43:39;17.67;;;15.07;;
75429;SDS011;64127;51.488;5.462;2023-02-14T08:46:12;16.67;;;14.87;;
75429;SDS011;64127;51.488;5.462;2023-02-14T08:48:48;16.17;;;14.50;;
75429;SDS011;64127;51.488;5.462;2023-02-14T08:51:20;17.03;;;15.23;;
75429;SDS011;64127;51.488;5.462;2023-02-14T08:53:53;16.53;;;13.77;;
75429;SDS011;64127;51.488;5.462;2023-02-14T08:56:27;15.83;;;14.23;;
75429;SDS011;64127;51.488;5.462;2023-02-14T08:59:00;15.73;;;14.17;;
75429;SDS011;64127;51.488;5.462;2023-02-14T09:01:32;15.87;;;14.10;;
75429;SDS011;64127;51.488;5.462;2023-02-14T09:04:06;16.07;;;14.03;;
75429;SDS011;64127;51.488;5.462;2023-02-14T09:06:39;17.33;;;15.63;;
75429;SDS011;64127;51.488;5.462;2023-02-14T09:09:19;16.03;;;14.37;;
75429;SDS011;64127;51.488;5.462;2023-02-14T09:12:03;16.73;;;14.70;;
75429;SDS011;64127;51.488;5.462;2023-02-14T09:14:46;17.70;;;15.10;;
75429;SDS011;64127;51.488;5.462;2023-02-14T09:17:25;16.40;;;13.97;;
75429;SDS011;64127;51.488;5.462;2023-02-14T09:20:09;16.43;;;14.67;;
75429;SDS011;64127;51.488;5.462;2023-02-14T09:22:54;16.60;;;14.43;;
75429;SDS011;64127;51.488;5.462;2023-02-14T09:25:30;18.07;;;14.87;;
75429;SDS011;64127;51.488;5.462;2023-02-14T09:28:07;17.83;;;14.40;;
75429;SDS011;64127;51.488;5.462;2023-02-14T09:30:39;15.33;;;13.83;;
75429;SDS011;64127;51.488;5.462;2023-02-14T09:33:14;16.50;;;14.70;;
75429;SDS011;64127;51.488;5.462;2023-02-14T09:35:47;15.07;;;13.57;;
75429;SDS011;64127;51.488;5.462;2023-02-14T09:38:22;15.87;;;14.13;;
75429;SDS011;64127;51.488;5.462;2023-02-14T09:40:58;16.00;;;14.23;;
75429;SDS011;64127;51.488;5.462;2023-02-14T09:50:12;16.13;;;14.53;;
75429;SDS011;64127;51.488;5.462;2023-02-14T09:53:11;16.00;;;14.00;;
75429;SDS011;64127;51.488;5.462;2023-02-14T09:56:40;15.50;;;13.90;;
75429;SDS011;64127;51.488;5.462;2023-02-14T10:07:26;15.57;;;14.03;;
75429;SDS011;64127;51.488;5.462;2023-02-14T10:17:37;15.90;;;14.20;;
75429;SDS011;64127;51.488;5.462;2023-02-14T10:21:00;16.07;;;14.47;;
75429;SDS011;64127;51.488;5.462;2023-02-14T10:27:36;16.83;;;14.10;;
75429;SDS011;64127;51.488;5.462;2023-02-14T10:30:25;16.53;;;14.30;;
75429;SDS011;64127;51.488;5.462;2023-02-14T10:33:10;15.47;;;13.93;;
75429;SDS011;64127;51.488;5.462;2023-02-14T10:35:50;16.00;;;14.10;;
75429;SDS011;64127;51.488;5.462;2023-02-14T10:47:30;16.97;;;15.27;;
75429;SDS011;64127;51.488;5.462;2023-02-14T10:50:38;16.90;;;15.27;;
75429;SDS011;64127;51.488;5.462;2023-02-14T10:53:43;17.03;;;15.03;;
75429;SDS011;64127;51.488;5.462;2023-02-14T10:59:38;17.70;;;14.80;;
75429;SDS011;64127;51.488;5.462;2023-02-14T11:02:14;16.50;;;14.80;;
75429;SDS011;64127;51.488;5.462;2023-02-14T11:04:48;17.30;;;15.47;;
75429;SDS011;64127;51.488;5.462;2023-02-14T11:07:21;15.90;;;14.27;;
75429;SDS011;64127;51.488;5.462;2023-02-14T11:09:54;17.00;;;15.03;;
75429;SDS011;64127;51.488;5.462;2023-02-14T11:15:09;17.47;;;15.50;;
75429;SDS011;64127;51.488;5.462;2023-02-14T11:18:15;17.57;;;15.67;;
75429;SDS011;64127;51.488;5.462;2023-02-14T11:20:58;18.17;;;14.83;;
75429;SDS011;64127;51.488;5.462;2023-02-14T11:23:40;17.90;;;15.03;;
75429;SDS011;64127;51.488;5.462;2023-02-14T11:29:02;18.00;;;16.10;;
75429;SDS011;64127;51.488;5.462;2023-02-14T11:31:50;17.40;;;15.00;;
75429;SDS011;64127;51.488;5.462;2023-02-14T11:34:26;16.20;;;14.47;;
75429;SDS011;64127;51.488;5.462;2023-02-14T11:37:03;17.27;;;15.37;;
75429;SDS011;64127;51.488;5.462;2023-02-14T11:39:53;15.73;;;14.13;;
75429;SDS011;64127;51.488;5.462;2023-02-14T11:42:32;16.73;;;14.90;;
75429;SDS011;64127;51.488;5.462;2023-02-14T11:45:25;16.40;;;14.27;;
75429;SDS011;64127;51.488;5.462;2023-02-14T11:48:16;17.77;;;14.70;;
75429;SDS011;64127;51.488;5.462;2023-02-14T11:51:09;16.53;;;14.83;;
75429;SDS011;64127;51.488;5.462;2023-02-14T11:56:20;16.73;;;14.83;;
75429;SDS011;64127;51.488;5.462;2023-02-14T11:58:58;17.07;;;13.57;;
75429;SDS011;64127;51.488;5.462;2023-02-14T12:01:35;19.10;;;15.33;;
75429;SDS011;64127;51.488;5.462;2023-02-14T12:04:16;16.03;;;14.07;;
75429;SDS011;64127;51.488;5.462;2023-02-14T12:06:54;16.63;;;14.13;;
75429;SDS011;64127;51.488;5.462;2023-02-14T12:24:19;16.80;;;13.73;;
75429;SDS011;64127;51.488;5.462;2023-02-14T12:27:31;18.73;;;15.10;;
75429;SDS011;64127;51.488;5.462;2023-02-14T12:30:18;16.60;;;14.43;;
75429;SDS011;64127;51.488;5.462;2023-02-14T12:32:53;17.23;;;14.80;;
75429;SDS011;64127;51.488;5.462;2023-02-14T12:39:11;17.40;;;15.07;;
75429;SDS011;64127;51.488;5.462;2023-02-14T12:52:00;18.93;;;14.73;;
75429;SDS011;64127;51.488;5.462;2023-02-14T13:07:16;19.93;;;15.70;;
75429;SDS011;64127;51.488;5.462;2023-02-14T13:16:29;18.57;;;14.77;;
75429;SDS011;64127;51.488;5.462;2023-02-14T13:22:46;19.63;;;15.63;;
75429;SDS011;64127;51.488;5.462;2023-02-14T13:28:03;19.33;;;15.57;;
75429;SDS011;64127;51.488;5.462;2023-02-14T13:30:41;20.13;;;16.10;;
75429;SDS011;64127;51.488;5.462;2023-02-14T13:33:20;18.67;;;15.87;;
75429;SDS011;64127;51.488;5.462;2023-02-14T13:36:06;18.40;;;14.97;;
75429;SDS011;64127;51.488;5.462;2023-02-14T13:38:43;19.13;;;16.43;;
75429;SDS011;64127;51.488;5.462;2023-02-14T13:41:22;17.33;;;15.53;;
75429;SDS011;64127;51.488;5.462;2023-02-14T13:43:58;17.77;;;15.63;;
75429;SDS011;64127;51.488;5.462;2023-02-14T13:52:03;18.33;;;16.00;;
75429;SDS011;64127;51.488;5.462;2023-02-14T13:57:26;17.23;;;15.03;;
75429;SDS011;64127;51.488;5.462;2023-02-14T14:08:16;19.07;;;16.53;;
75429;SDS011;64127;51.488;5.462;2023-02-14T14:10:53;18.23;;;16.33;;
75429;SDS011;64127;51.488;5.462;2023-02-14T14:16:19;18.60;;;16.50;;
75429;SDS011;64127;51.488;5.462;2023-02-14T14:19:03;18.97;;;16.63;;
75429;SDS011;64127;51.488;5.462;2023-02-14T14:22:08;18.40;;;16.00;;
75429;SDS011;64127;51.488;5.462;2023-02-14T14:24:54;18.00;;;16.07;;
75429;SDS011;64127;51.488;5.462;2023-02-14T14:27:41;18.13;;;16.17;;
75429;SDS011;64127;51.488;5.462;2023-02-14T14:30:18;17.30;;;15.50;;
75429;SDS011;64127;51.488;5.462;2023-02-14T14:36:05;17.83;;;15.57;;
75429;SDS011;64127;51.488;5.462;2023-02-14T14:38:45;18.97;;;16.57;;
75429;SDS011;64127;51.488;5.462;2023-02-14T14:41:25;21.03;;;16.63;;
75429;SDS011;64127;51.488;5.462;2023-02-14T14:44:01;21.27;;;16.60;;
75429;SDS011;64127;51.488;5.462;2023-02-14T14:46:36;18.73;;;15.93;;
75429;SDS011;64127;51.488;5.462;2023-02-14T14:49:09;17.70;;;15.80;;
75429;SDS011;64127;51.488;5.462;2023-02-14T14:51:42;18.17;;;16.13;;
75429;SDS011;64127;51.488;5.462;2023-02-14T14:54:17;20.23;;;16.40;;
75429;SDS011;64127;51.488;5.462;2023-02-14T14:56:58;17.80;;;15.57;;
75429;SDS011;64127;51.488;5.462;2023-02-14T14:59:33;17.43;;;14.80;;
75429;SDS011;64127;51.488;5.462;2023-02-14T15:02:23;20.10;;;15.93;;
75429;SDS011;64127;51.488;5.462;2023-02-14T15:05:09;18.57;;;15.47;;
75429;SDS011;64127;51.488;5.462;2023-02-14T15:07:54;17.67;;;15.73;;
75429;SDS011;64127;51.488;5.462;2023-02-14T15:10:28;20.43;;;15.90;;
75429;SDS011;64127;51.488;5.462;2023-02-14T15:13:01;19.03;;;15.90;;
75429;SDS011;64127;51.488;5.462;2023-02-14T15:15:52;17.33;;;15.13;;
75429;SDS011;64127;51.488;5.462;2023-02-14T15:18:24;18.10;;;15.90;;
75429;SDS011;64127;51.488;5.462;2023-02-14T15:20:56;17.37;;;15.43;;
75429;SDS011;64127;51.488;5.462;2023-02-14T15:23:30;18.00;;;16.20;;
75429;SDS011;64127;51.488;5.462;2023-02-14T15:26:03;21.17;;;16.73;;
75429;SDS011;64127;51.488;5.462;2023-02-14T15:28:36;20.13;;;16.73;;
75429;SDS011;64127;51.488;5.462;2023-02-14T15:31:08;18.53;;;16.53;;
75429;SDS011;64127;51.488;5.462;2023-02-14T15:33:41;23.80;;;16.70;;
75429;SDS011;64127;51.488;5.462;2023-02-14T15:36:17;18.00;;;15.77;;
75429;SDS011;64127;51.488;5.462;2023-02-14T15:38:57;18.87;;;16.97;;
75429;SDS011;64127;51.488;5.462;2023-02-14T15:41:31;18.60;;;16.70;;
75429;SDS011;64127;51.488;5.462;2023-02-14T15:44:03;21.87;;;16.77;;
75429;SDS011;64127;51.488;5.462;2023-02-14T15:46:36;21.27;;;16.40;;
75429;SDS011;64127;51.488;5.462;2023-02-14T15:49:10;18.60;;;16.60;;
75429;SDS011;64127;51.488;5.462;2023-02-14T15:51:51;19.17;;;16.60;;
75429;SDS011;64127;51.488;5.462;2023-02-14T15:54:29;19.00;;;17.00;;
75429;SDS011;64127;51.488;5.462;2023-02-14T15:57:05;19.27;;;17.17;;
75429;SDS011;64127;51.488;5.462;2023-02-14T15:59:49;19.23;;;17.23;;
75429;SDS011;64127;51.488;5.462;2023-02-14T16:02:37;18.10;;;16.13;;
75429;SDS011;64127;51.488;5.462;2023-02-14T16:05:16;18.10;;;15.83;;
75429;SDS011;64127;51.488;5.462;2023-02-14T16:08:02;18.57;;;16.67;;
75429;SDS011;64127;51.488;5.462;2023-02-14T16:11:26;18.70;;;16.03;;
75429;SDS011;64127;51.488;5.462;2023-02-14T16:14:23;19.40;;;16.40;;
75429;SDS011;64127;51.488;5.462;2023-02-14T16:17:12;18.80;;;16.60;;
75429;SDS011;64127;51.488;5.462;2023-02-14T16:19:44;21.03;;;17.60;;
75429;SDS011;64127;51.488;5.462;2023-02-14T16:22:24;21.80;;;17.80;;
75429;SDS011;64127;51.488;5.462;2023-02-14T16:25:08;23.63;;;17.30;;
75429;SDS011;64127;51.488;5.462;2023-02-14T16:27:40;20.97;;;17.43;;
75429;SDS011;64127;51.488;5.462;2023-02-14T16:30:14;20.53;;;16.77;;
75429;SDS011;64127;51.488;5.462;2023-02-14T16:32:50;19.93;;;17.37;;
75429;SDS011;64127;51.488;5.462;2023-02-14T16:35:23;21.73;;;17.10;;
75429;SDS011;64127;51.488;5.462;2023-02-14T16:37:56;20.63;;;17.00;;
75429;SDS011;64127;51.488;5.462;2023-02-14T16:40:28;22.73;;;18.10;;
75429;SDS011;64127;51.488;5.462;2023-02-14T16:43:00;21.50;;;18.47;;
75429;SDS011;64127;51.488;5.462;2023-02-14T16:45:34;22.27;;;18.03;;
75429;SDS011;64127;51.488;5.462;2023-02-14T16:48:06;20.43;;;17.50;;
75429;SDS011;64127;51.488;5.462;2023-02-14T16:50:39;22.13;;;18.40;;
75429;SDS011;64127;51.488;5.462;2023-02-14T16:53:26;21.97;;;18.47;;
75429;SDS011;64127;51.488;5.462;2023-02-14T16:55:59;23.00;;;18.60;;
75429;SDS011;64127;51.488;5.462;2023-02-14T16:58:31;21.83;;;18.53;;
75429;SDS011;64127;51.488;5.462;2023-02-14T17:01:06;22.37;;;18.80;;
75429;SDS011;64127;51.488;5.462;2023-02-14T17:03:38;23.33;;;18.83;;
75429;SDS011;64127;51.488;5.462;2023-02-14T17:06:13;22.03;;;18.87;;
75429;SDS011;64127;51.488;5.462;2023-02-14T17:08:51;21.63;;;18.92;;
75429;SDS011;64127;51.488;5.462;2023-02-14T17:11:26;23.07;;;19.13;;
75429;SDS011;64127;51.488;5.462;2023-02-14T17:14:02;25.48;;;22.65;;
75429;SDS011;64127;51.488;5.462;2023-02-14T17:16:35;25.57;;;20.03;;
75429;SDS011;64127;51.488;5.462;2023-02-14T17:19:07;23.50;;;19.47;;
75429;SDS011;64127;51.488;5.462;2023-02-14T17:21:39;22.83;;;19.43;;
75429;SDS011;64127;51.488;5.462;2023-02-14T17:24:12;23.00;;;19.50;;
75429;SDS011;64127;51.488;5.462;2023-02-14T17:26:44;22.43;;;19.80;;
75429;SDS011;64127;51.488;5.462;2023-02-14T17:29:16;24.07;;;19.10;;
75429;SDS011;64127;51.488;5.462;2023-02-14T17:31:48;22.73;;;19.50;;
75429;SDS011;64127;51.488;5.462;2023-02-14T17:34:20;24.43;;;20.10;;
75429;SDS011;64127;51.488;5.462;2023-02-14T17:36:52;22.80;;;19.27;;
75429;SDS011;64127;51.488;5.462;2023-02-14T17:39:24;23.10;;;18.97;;
75429;SDS011;64127;51.488;5.462;2023-02-14T17:41:56;22.63;;;18.90;;
75429;SDS011;64127;51.488;5.462;2023-02-14T17:44:29;23.13;;;19.10;;
75429;SDS011;64127;51.488;5.462;2023-02-14T17:47:06;22.03;;;18.60;;
75429;SDS011;64127;51.488;5.462;2023-02-14T17:49:38;22.97;;;19.03;;
75429;SDS011;64127;51.488;5.462;2023-02-14T17:52:09;24.40;;;19.73;;
75429;SDS011;64127;51.488;5.462;2023-02-14T17:54:42;24.30;;;20.30;;
75429;SDS011;64127;51.488;5.462;2023-02-14T17:57:15;23.80;;;19.87;;
75429;SDS011;64127;51.488;5.462;2023-02-14T17:59:47;24.80;;;20.57;;
75429;SDS011;64127;51.488;5.462;2023-02-14T18:02:21;25.60;;;20.60;;
75429;SDS011;64127;51.488;5.462;2023-02-14T18:04:53;27.87;;;21.60;;
75429;SDS011;64127;51.488;5.462;2023-02-14T18:07:25;28.87;;;21.43;;
75429;SDS011;64127;51.488;5.462;2023-02-14T18:09:57;24.00;;;20.33;;
75429;SDS011;64127;51.488;5.462;2023-02-14T18:12:29;24.70;;;20.57;;
75429;SDS011;64127;51.488;5.462;2023-02-14T18:15:01;26.83;;;21.63;;
75429;SDS011;64127;51.488;5.462;2023-02-14T18:17:34;25.43;;;21.70;;